createdAt,value
2023-04-09T00:02:59.897Z,48.78
2023-04-09T00:07:01.676Z,50.67
2023-04-09T00:11:03.700Z,50.50
2023-04-09T00:15:06.168Z,51.65
2023-04-09T00:19:07.887Z,48.38
2023-04-09T00:23:11.776Z,53.95
2023-04-09T00:27:14.663Z,49.53
2023-04-09T00:31:16.430Z,54.47
2023-04-09T00:35:18.187Z,51.10
2023-04-09T00:39:19.879Z,47.08
2023-04-09T00:43:22.138Z,51.45
2023-04-09T00:47:23.821Z,50.40
2023-04-09T00:51:26.323Z,47.00
2023-04-09T00:55:29.025Z,46.67
2023-04-09T00:59:31.244Z,49.55
2023-04-09T01:03:33.243Z,43.85
2023-04-09T01:07:46.443Z,46.05
2023-04-09T01:12:14.373Z,44.45
2023-04-09T01:16:19.220Z,45.10
2023-04-09T01:20:27.683Z,42.83
2023-04-09T01:24:32.055Z,43.30
2023-04-09T01:28:36.680Z,42.97
2023-04-09T01:32:39.802Z,44.17
2023-04-09T01:36:42.930Z,44.70
2023-04-09T01:40:44.899Z,44.92
2023-04-09T01:44:47.026Z,44.60
2023-04-09T01:48:49.556Z,42.33
2023-04-09T01:52:51.584Z,39.67
2023-04-09T01:56:53.333Z,46.80
2023-04-09T02:01:38.464Z,41.50
2023-04-09T02:05:46.594Z,39.40
2023-04-09T02:09:49.296Z,40.25
2023-04-09T02:13:54.204Z,41.97
2023-04-09T02:17:55.960Z,43.20
2023-04-09T02:21:57.813Z,47.20
2023-04-09T02:25:59.783Z,40.92
2023-04-09T02:30:01.557Z,41.37
2023-04-09T02:34:03.238Z,39.97
2023-04-09T02:38:05.105Z,41.80
2023-04-09T02:42:07.837Z,39.70
2023-04-09T02:46:09.586Z,42.35
2023-04-09T02:50:11.425Z,36.88
2023-04-09T02:54:13.120Z,35.83
2023-04-09T02:58:14.808Z,39.15
2023-04-09T03:02:16.664Z,42.47
2023-04-09T03:06:18.718Z,41.50
2023-04-09T03:10:20.581Z,39.33
2023-04-09T03:14:22.272Z,38.55
2023-04-09T03:18:23.990Z,39.15
2023-04-09T03:22:25.766Z,38.65
2023-04-09T03:26:27.445Z,38.92
2023-04-09T03:30:29.722Z,39.13
2023-04-09T03:34:31.418Z,36.80
2023-04-09T03:38:33.088Z,44.55
2023-04-09T03:42:35.603Z,36.40
2023-04-09T03:46:37.310Z,36.95
2023-04-09T03:50:40.822Z,36.33
2023-04-09T03:54:43.428Z,32.30
2023-04-09T03:58:45.172Z,36.75
2023-04-09T04:02:46.970Z,34.10
2023-04-09T04:06:48.705Z,34.20
2023-04-09T04:10:50.575Z,36.70
2023-04-09T04:14:52.261Z,31.73
2023-04-09T04:18:54.204Z,31.30
2023-04-09T04:22:56.101Z,34.70
2023-04-09T04:26:57.796Z,31.25
2023-04-09T04:30:59.505Z,31.40
2023-04-09T04:35:01.196Z,31.10
2023-04-09T04:39:02.996Z,31.58
2023-04-09T04:43:04.634Z,39.88
2023-04-09T04:47:06.327Z,29.63
2023-04-09T04:51:07.995Z,33.90
2023-04-09T04:55:09.903Z,34.50
2023-04-09T04:59:11.799Z,29.55
2023-04-09T05:03:13.893Z,30.12
2023-04-09T05:07:15.998Z,29.45
2023-04-09T05:11:17.729Z,29.83
2023-04-09T05:15:19.620Z,28.50
2023-04-09T05:19:21.326Z,29.90
2023-04-09T05:23:22.990Z,30.88
2023-04-09T05:27:25.965Z,26.85
2023-04-09T05:31:27.679Z,30.75
2023-04-09T05:35:29.439Z,31.25
2023-04-09T05:39:32.908Z,30.20
2023-04-09T05:43:34.696Z,30.25
2023-04-09T05:47:36.454Z,31.25
2023-04-09T05:51:38.137Z,30.10
2023-04-09T05:55:39.879Z,31.77
2023-04-09T05:59:41.672Z,25.83
2023-04-09T06:03:44.052Z,33.80
2023-04-09T06:07:45.835Z,26.80
2023-04-09T06:11:47.511Z,29.02
2023-04-09T06:15:49.268Z,34.15
2023-04-09T06:19:50.950Z,31.30
2023-04-09T06:23:53.544Z,32.15
2023-04-09T06:27:56.881Z,26.83
2023-04-09T06:31:59.302Z,25.92
2023-04-09T06:36:01.294Z,26.37
2023-04-09T06:40:03.362Z,22.95
2023-04-09T06:44:05.188Z,25.12
2023-04-09T06:48:07.264Z,20.52
2023-04-09T06:52:09.045Z,22.23
2023-04-09T06:56:11.190Z,20.77
2023-04-09T07:00:13.325Z,18.83
2023-04-09T07:04:15.486Z,19.45
2023-04-09T07:08:17.361Z,20.10
2023-04-09T07:12:27.712Z,17.62
2023-04-09T07:16:29.473Z,18.92
2023-04-09T07:20:31.174Z,17.25
2023-04-09T07:24:32.881Z,17.50
2023-04-09T07:28:34.539Z,16.67
2023-04-09T07:32:37.748Z,18.58
2023-04-09T07:36:41.015Z,15.25
2023-04-09T07:40:42.678Z,14.98
2023-04-09T07:44:44.466Z,14.52
2023-04-09T07:48:48.272Z,14.57
2023-04-09T07:52:50.308Z,13.07
2023-04-09T07:56:52.240Z,13.38
2023-04-09T08:00:53.977Z,12.60
2023-04-09T08:04:55.908Z,10.52
2023-04-09T08:08:57.688Z,10.38
2023-04-09T08:12:59.379Z,11.65
2023-04-09T08:17:01.448Z,11.00
2023-04-09T08:21:05.242Z,11.25
2023-04-09T08:25:07.465Z,12.02
2023-04-09T08:29:10.246Z,10.30
2023-04-09T08:33:12.212Z,11.00
2023-04-09T08:37:13.900Z,8.48
2023-04-09T08:41:24.655Z,10.93
2023-04-09T08:45:26.412Z,10.25
2023-04-09T08:49:28.170Z,8.20
2023-04-09T08:53:30.198Z,9.05
2023-04-09T08:57:37.821Z,8.88
2023-04-09T09:01:39.593Z,8.43
2023-04-09T09:05:43.497Z,8.82
2023-04-09T09:09:59.350Z,8.25
2023-04-09T09:14:01.840Z,8.68
2023-04-09T09:18:03.878Z,8.30
2023-04-09T09:22:08.384Z,7.70
2023-04-09T09:26:20.664Z,7.00
2023-04-09T09:30:24.422Z,8.50
2023-04-09T09:34:26.232Z,6.93
2023-04-09T09:38:27.976Z,6.95
2023-04-09T09:42:29.760Z,7.22
2023-04-09T09:46:42.865Z,7.47
2023-04-09T09:50:46.348Z,7.30
2023-04-09T09:54:52.234Z,6.20
2023-04-09T09:58:59.550Z,6.35
2023-04-09T10:03:12.104Z,6.10
2023-04-09T10:07:15.952Z,7.35
2023-04-09T10:11:19.791Z,5.90
2023-04-09T10:15:21.896Z,5.78
2023-04-09T10:19:23.920Z,5.53
2023-04-09T10:23:37.824Z,6.07
2023-04-09T10:27:39.627Z,6.30
2023-04-09T10:32:04.490Z,6.87
2023-04-09T10:36:10.914Z,7.10
2023-04-09T10:40:20.416Z,6.50
2023-04-09T10:44:24.234Z,6.55
2023-04-09T10:48:26.564Z,6.18
2023-04-09T10:52:31.219Z,6.30
2023-04-09T10:56:33.329Z,7.15
2023-04-09T11:00:42.832Z,7.00
2023-04-09T11:05:23.780Z,5.87
2023-04-09T11:09:25.558Z,7.32
2023-04-09T11:13:28.659Z,6.28
2023-04-09T11:17:35.815Z,5.50
2023-04-09T11:21:37.555Z,6.50
2023-04-09T11:25:39.237Z,5.25
2023-04-09T11:29:42.333Z,6.37
2023-04-09T11:33:46.770Z,5.62
2023-04-09T11:37:50.567Z,6.00
2023-04-09T11:41:52.285Z,5.75
2023-04-09T11:45:55.890Z,6.35
2023-04-09T11:49:59.557Z,6.72
2023-04-09T11:54:08.148Z,7.15
2023-04-09T11:58:11.507Z,7.37
2023-04-09T12:02:18.103Z,5.68
2023-04-09T12:06:22.826Z,5.47
2023-04-09T12:10:31.369Z,7.32
2023-04-09T12:14:33.050Z,5.05
2023-04-09T12:18:40.195Z,5.45
2023-04-09T12:22:41.932Z,7.35
2023-04-09T12:26:45.084Z,6.37
2023-04-09T12:30:48.153Z,7.37
2023-04-09T12:34:49.938Z,6.65
2023-04-09T12:38:51.804Z,7.65
2023-04-09T12:42:54.082Z,6.18
2023-04-09T12:46:56.130Z,5.90
2023-04-09T12:50:57.822Z,6.57
2023-04-09T12:54:59.554Z,7.72
2023-04-09T12:59:01.642Z,6.05
2023-04-09T13:03:03.543Z,7.15
2023-04-09T13:07:05.483Z,7.28
2023-04-09T13:11:07.155Z,5.55
2023-04-09T13:15:09.092Z,6.90
2023-04-09T13:19:11.090Z,6.37
2023-04-09T13:23:12.761Z,5.72
2023-04-09T13:27:14.533Z,5.87
2023-04-09T13:31:16.451Z,5.72
2023-04-09T13:35:19.031Z,5.80
2023-04-09T13:39:20.990Z,6.93
2023-04-09T13:43:27.753Z,5.70
2023-04-09T13:47:29.569Z,5.57
2023-04-09T13:51:31.481Z,5.60
2023-04-09T13:55:33.169Z,5.47
2023-04-09T13:59:34.849Z,5.28
2023-04-09T14:03:38.485Z,4.45
2023-04-09T14:07:40.364Z,5.00
2023-04-09T14:11:42.164Z,5.18
2023-04-09T14:15:45.293Z,5.93
2023-04-09T14:19:47.120Z,4.37
2023-04-09T14:23:48.856Z,5.47
2023-04-09T14:27:50.746Z,5.00
2023-04-09T14:31:53.185Z,4.68
2023-04-09T14:35:56.242Z,4.20
2023-04-09T14:39:58.004Z,5.03
2023-04-09T14:43:59.888Z,5.18
2023-04-09T14:48:01.627Z,4.70
2023-04-09T14:52:03.482Z,4.70
2023-04-09T14:56:05.651Z,4.57
2023-04-09T15:00:08.744Z,4.10
2023-04-09T15:04:10.693Z,5.53
2023-04-09T15:08:13.281Z,5.60
2023-04-09T15:12:15.482Z,4.87
2023-04-09T15:16:25.774Z,5.62
2023-04-09T15:20:27.785Z,5.97
2023-04-09T15:24:29.553Z,4.85
2023-04-09T15:28:31.446Z,6.40
2023-04-09T15:32:33.220Z,5.60
2023-04-09T15:36:35.094Z,4.53
2023-04-09T15:40:36.796Z,4.40
2023-04-09T15:44:39.234Z,4.47
2023-04-09T15:48:41.594Z,4.70
2023-04-09T15:52:43.320Z,5.87
2023-04-09T15:56:45.162Z,6.37
2023-04-09T16:00:47.293Z,4.22
2023-04-09T16:04:49.338Z,4.50
2023-04-09T16:08:51.362Z,8.18
2023-04-09T16:12:53.410Z,7.55
2023-04-09T16:16:55.266Z,5.68
2023-04-09T16:20:57.695Z,7.22
2023-04-09T16:24:59.521Z,6.10
2023-04-09T16:29:03.940Z,6.35
2023-04-09T16:33:06.267Z,5.12
2023-04-09T16:37:08.142Z,4.85
2023-04-09T16:41:09.813Z,5.45
2023-04-09T16:45:11.689Z,5.40
2023-04-09T16:49:13.897Z,6.87
2023-04-09T16:53:15.589Z,5.50
2023-04-09T16:57:17.412Z,6.05
2023-04-09T17:01:19.146Z,5.18
2023-04-09T17:05:22.357Z,4.90
2023-04-09T17:09:24.992Z,5.10
2023-04-09T17:13:27.252Z,4.32
2023-04-09T17:17:28.973Z,5.75
2023-04-09T17:21:30.935Z,5.25
2023-04-09T17:25:32.600Z,4.90
2023-04-09T17:29:34.664Z,4.78
2023-04-09T17:33:36.701Z,5.30
2023-04-09T17:37:38.568Z,5.85
2023-04-09T17:41:40.429Z,8.18
2023-04-09T17:45:42.344Z,6.07
2023-04-09T17:49:44.417Z,4.62
2023-04-09T17:53:47.212Z,5.47
2023-04-09T17:57:48.869Z,5.68
2023-04-09T18:01:50.670Z,5.03
2023-04-09T18:05:53.690Z,5.85
2023-04-09T18:09:55.571Z,4.90
2023-04-09T18:13:57.286Z,5.87
2023-04-09T18:17:59.766Z,5.68
2023-04-09T18:22:01.556Z,5.87
2023-04-09T18:26:03.304Z,7.22
2023-04-09T18:30:05.598Z,4.68
2023-04-09T18:34:07.352Z,5.15
2023-04-09T18:38:09.049Z,5.37
2023-04-09T18:42:10.812Z,5.60
2023-04-09T18:46:12.573Z,5.37
2023-04-09T18:50:18.571Z,6.57
2023-04-09T18:54:20.759Z,6.90
2023-04-09T18:58:22.655Z,5.22
2023-04-09T19:02:24.585Z,5.37
2023-04-09T19:06:27.883Z,13.55
2023-04-09T19:10:29.632Z,8.60
2023-04-09T19:14:31.369Z,6.50
2023-04-09T19:18:34.173Z,6.55
2023-04-09T19:22:36.679Z,6.95
2023-04-09T19:26:38.917Z,6.78
2023-04-09T19:30:40.603Z,6.70
2023-04-09T19:34:42.635Z,9.98
2023-04-09T19:38:44.384Z,6.93
2023-04-09T19:42:46.106Z,7.60
2023-04-09T19:46:47.858Z,8.82
2023-04-09T19:50:49.604Z,7.70
2023-04-09T19:54:56.073Z,6.87
2023-04-09T19:58:57.775Z,9.77
2023-04-09T20:02:59.755Z,12.63
2023-04-09T20:07:02.134Z,13.70
2023-04-09T20:11:03.983Z,10.73
2023-04-09T20:15:09.187Z,7.40
2023-04-09T20:19:11.525Z,7.75
2023-04-09T20:23:13.284Z,8.95
2023-04-09T20:27:15.140Z,10.18
2023-04-09T20:31:17.070Z,8.10
2023-04-09T20:35:19.113Z,8.65
2023-04-09T20:39:22.241Z,8.82
2023-04-09T20:43:24.032Z,7.85
2023-04-09T20:47:27.446Z,8.40
2023-04-09T20:51:30.849Z,11.85
2023-04-09T20:55:32.619Z,8.50
2023-04-09T20:59:34.626Z,10.43
2023-04-09T21:03:38.250Z,10.73
2023-04-09T21:07:40.158Z,9.57
2023-04-09T21:11:41.883Z,9.45
2023-04-09T21:15:43.578Z,9.38
2023-04-09T21:19:45.644Z,9.20
2023-04-09T21:23:47.362Z,9.00
2023-04-09T21:27:49.072Z,8.25
2023-04-09T21:31:50.711Z,8.27
2023-04-09T21:35:56.496Z,8.90
2023-04-09T21:39:58.566Z,8.50
2023-04-09T21:44:07.822Z,8.55
2023-04-09T21:48:09.530Z,9.35
2023-04-09T21:52:14.885Z,8.88
2023-04-09T21:56:16.895Z,9.25
2023-04-09T22:00:18.623Z,8.52
2023-04-09T22:04:20.340Z,8.07
2023-04-09T22:08:22.184Z,8.35
2023-04-09T22:12:24.059Z,7.30
2023-04-09T22:16:26.291Z,9.13
2023-04-09T22:20:28.211Z,9.20
2023-04-09T22:24:30.273Z,9.82
2023-04-09T22:28:32.131Z,8.88
2023-04-09T22:32:33.911Z,8.70
2023-04-09T22:36:35.802Z,9.95
2023-04-09T22:40:37.495Z,9.30
2023-04-09T22:44:39.869Z,7.93
2023-04-09T22:48:44.887Z,9.27
2023-04-09T22:52:47.113Z,8.20
2023-04-09T22:56:49.540Z,7.20
2023-04-09T23:00:51.576Z,11.30
2023-04-09T23:04:53.321Z,9.05
2023-04-09T23:08:55.434Z,7.80
2023-04-09T23:12:57.321Z,9.18
2023-04-09T23:16:59.036Z,9.30
2023-04-09T23:21:08.353Z,9.48
2023-04-09T23:25:10.051Z,9.70
2023-04-09T23:29:11.777Z,10.90
2023-04-09T23:33:13.533Z,9.48
2023-04-09T23:37:15.354Z,10.25
2023-04-09T23:41:17.115Z,9.65
2023-04-09T23:45:23.347Z,8.57
2023-04-09T23:49:28.262Z,10.07
2023-04-09T23:53:29.973Z,9.95
2023-04-09T23:57:31.749Z,10.73
